createdAt,value
2022-12-23T00:01:24.372Z,22.30
2022-12-23T00:03:51.764Z,22.15
2022-12-23T00:06:20.085Z,21.67
2022-12-23T00:08:46.799Z,21.85
2022-12-23T00:11:18.789Z,22.83
2022-12-23T00:16:30.478Z,22.05
2022-12-23T00:18:57.042Z,22.58
2022-12-23T00:21:23.634Z,23.98
2022-12-23T00:23:51.387Z,23.60
2022-12-23T00:26:23.664Z,23.60
2022-12-23T00:28:50.554Z,24.05
2022-12-23T00:31:21.387Z,23.90
2022-12-23T00:33:49.379Z,25.13
2022-12-23T00:36:24.426Z,24.95
2022-12-23T00:39:09.631Z,24.85
2022-12-23T00:41:54.978Z,25.30
2022-12-23T00:44:21.516Z,24.60
2022-12-23T00:46:48.401Z,23.33
2022-12-23T00:49:35.605Z,24.15
2022-12-23T00:52:02.835Z,24.05
2022-12-23T00:54:29.696Z,22.92
2022-12-23T00:56:56.164Z,21.60
2022-12-23T00:59:22.631Z,22.15
2022-12-23T01:02:08.233Z,21.65
2022-12-23T01:04:53.943Z,21.92
2022-12-23T01:07:21.241Z,22.55
2022-12-23T01:09:47.834Z,22.08
2022-12-23T01:12:14.310Z,22.42
2022-12-23T01:14:41.204Z,21.95
2022-12-23T01:17:08.579Z,21.80
2022-12-23T01:19:35.668Z,21.10
2022-12-23T01:22:02.578Z,21.67
2022-12-23T01:24:30.989Z,20.58
2022-12-23T01:26:58.121Z,20.90
2022-12-23T01:29:25.323Z,21.58
2022-12-23T01:31:52.020Z,21.60
2022-12-23T01:34:18.957Z,21.08
2022-12-23T01:36:45.491Z,20.92
2022-12-23T01:39:12.052Z,19.90
2022-12-23T01:41:57.194Z,20.23
2022-12-23T01:45:25.156Z,21.83
2022-12-23T01:48:02.493Z,22.40
2022-12-23T01:50:35.004Z,21.13
2022-12-23T01:53:24.409Z,22.00
2022-12-23T01:56:07.977Z,21.20
2022-12-23T01:58:42.433Z,21.42
2022-12-23T02:01:28.942Z,21.50
2022-12-23T02:04:02.589Z,21.67
2022-12-23T02:06:59.500Z,21.17
2022-12-23T02:09:32.488Z,21.58
2022-12-23T02:12:32.128Z,21.27
2022-12-23T02:15:41.760Z,21.42
2022-12-23T02:18:27.849Z,21.20
2022-12-23T02:21:13.122Z,21.05
2022-12-23T02:24:17.153Z,21.52
2022-12-23T02:27:18.956Z,20.60
2022-12-23T02:30:20.506Z,21.02
2022-12-23T02:33:13.051Z,18.98
2022-12-23T02:36:20.114Z,19.80
2022-12-23T02:39:10.662Z,18.67
2022-12-23T02:42:02.244Z,19.73
2022-12-23T02:44:35.387Z,19.25
2022-12-23T02:47:10.206Z,18.98
2022-12-23T02:49:41.471Z,19.13
2022-12-23T02:52:13.962Z,17.95
2022-12-23T02:54:50.216Z,16.92
2022-12-23T02:57:22.854Z,15.75
2022-12-23T02:59:51.491Z,17.20
2022-12-23T03:02:18.753Z,17.40
2022-12-23T03:04:45.606Z,16.95
2022-12-23T03:07:30.292Z,17.85
2022-12-23T03:10:16.047Z,16.00
2022-12-23T03:13:14.648Z,16.13
2022-12-23T03:15:56.474Z,17.90
2022-12-23T03:18:36.361Z,18.77
2022-12-23T03:21:25.130Z,18.13
2022-12-23T03:23:56.224Z,17.80
2022-12-23T03:26:40.929Z,18.95
2022-12-23T03:29:22.486Z,18.42
2022-12-23T03:31:51.708Z,18.75
2022-12-23T03:34:24.063Z,17.98
2022-12-23T03:36:55.658Z,19.48
2022-12-23T03:39:28.431Z,19.88
2022-12-23T03:42:01.808Z,19.42
2022-12-23T03:44:32.761Z,19.45
2022-12-23T03:47:06.323Z,18.83
2022-12-23T03:49:37.995Z,19.05
2022-12-23T03:52:21.724Z,20.17
2022-12-23T03:54:53.599Z,18.77
2022-12-23T03:57:25.983Z,19.35
2022-12-23T03:59:53.346Z,17.42
2022-12-23T04:02:32.695Z,18.70
2022-12-23T04:05:25.170Z,17.92
2022-12-23T04:08:13.492Z,17.58
2022-12-23T04:10:40.870Z,17.83
2022-12-23T04:13:08.053Z,17.55
2022-12-23T04:15:40.267Z,17.48
2022-12-23T04:18:07.730Z,18.08
2022-12-23T04:20:34.275Z,18.23
2022-12-23T04:23:00.786Z,18.40
2022-12-23T04:25:27.315Z,18.50
2022-12-23T04:27:53.855Z,20.13
2022-12-23T04:30:20.477Z,19.52
2022-12-23T04:32:47.058Z,20.15
2022-12-23T04:35:13.620Z,19.40
2022-12-23T04:37:40.143Z,19.15
2022-12-23T04:40:07.600Z,20.58
2022-12-23T04:42:34.355Z,20.48
2022-12-23T04:45:00.894Z,20.33
2022-12-23T04:47:27.548Z,20.00
2022-12-23T04:49:54.132Z,19.90
2022-12-23T04:52:20.694Z,19.90
2022-12-23T04:54:47.236Z,20.65
2022-12-23T04:57:15.080Z,20.63
2022-12-23T04:59:41.619Z,19.88
2022-12-23T05:02:08.350Z,20.20
2022-12-23T05:04:35.220Z,20.60
2022-12-23T05:07:01.833Z,20.30
2022-12-23T05:09:28.324Z,20.58
2022-12-23T05:11:54.897Z,20.80
2022-12-23T05:14:21.435Z,20.83
2022-12-23T05:16:48.055Z,20.27
2022-12-23T05:19:14.745Z,21.58
2022-12-23T05:21:41.289Z,21.65
2022-12-23T05:24:07.885Z,22.52
2022-12-23T05:26:34.377Z,22.48
2022-12-23T05:29:00.906Z,22.52
2022-12-23T05:31:27.462Z,22.85
2022-12-23T05:33:54.018Z,22.52
2022-12-23T05:36:20.573Z,22.85
2022-12-23T05:38:47.873Z,22.38
2022-12-23T05:41:16.221Z,23.08
2022-12-23T05:43:43.113Z,23.02
2022-12-23T05:46:09.638Z,22.80
2022-12-23T05:48:36.194Z,21.75
2022-12-23T05:51:02.710Z,22.45
2022-12-23T05:53:29.246Z,22.17
2022-12-23T05:55:55.839Z,22.55
2022-12-23T05:58:22.427Z,22.73
2022-12-23T06:00:48.987Z,23.67
2022-12-23T06:03:16.474Z,21.83
2022-12-23T06:05:43.943Z,21.75
2022-12-23T06:08:10.488Z,21.98
2022-12-23T06:10:37.001Z,22.45
2022-12-23T06:13:03.637Z,23.02
2022-12-23T06:15:30.182Z,22.33
2022-12-23T06:17:56.742Z,22.52
2022-12-23T06:20:23.225Z,23.25
2022-12-23T06:22:49.751Z,23.75
2022-12-23T06:25:16.434Z,23.60
2022-12-23T06:27:43.041Z,22.17
2022-12-23T06:30:10.192Z,21.90
2022-12-23T06:32:38.885Z,21.95
2022-12-23T06:35:06.903Z,21.70
2022-12-23T06:37:33.690Z,21.25
2022-12-23T06:40:00.311Z,20.48
2022-12-23T06:42:26.799Z,19.23
2022-12-23T06:44:53.268Z,20.52
2022-12-23T06:47:19.831Z,19.27
2022-12-23T06:49:46.344Z,18.98
2022-12-23T06:52:12.875Z,18.25
2022-12-23T06:54:39.377Z,18.95
2022-12-23T06:57:05.933Z,18.67
2022-12-23T06:59:32.486Z,18.15
2022-12-23T07:01:59.271Z,17.88
2022-12-23T07:04:25.958Z,17.52
2022-12-23T07:06:52.452Z,16.88
2022-12-23T07:09:18.982Z,18.48
2022-12-23T07:11:45.903Z,18.02
2022-12-23T07:14:12.376Z,19.40
2022-12-23T07:16:39.025Z,20.15
2022-12-23T07:19:05.634Z,20.60
2022-12-23T07:21:32.237Z,21.17
2022-12-23T07:23:58.830Z,22.02
2022-12-23T07:26:25.407Z,21.52
2022-12-23T07:28:51.935Z,21.83
2022-12-23T07:31:18.453Z,22.70
2022-12-23T07:33:45.001Z,22.45
2022-12-23T07:36:11.519Z,23.90
2022-12-23T07:38:38.004Z,23.88
2022-12-23T07:41:04.672Z,26.48
2022-12-23T07:43:31.231Z,24.63
2022-12-23T07:46:00.746Z,25.40
2022-12-23T07:48:27.911Z,26.17
2022-12-23T07:51:00.616Z,26.73
2022-12-23T07:53:27.576Z,28.75
2022-12-23T07:55:56.578Z,27.35
2022-12-23T07:58:23.287Z,27.50
2022-12-23T08:00:49.993Z,27.83
2022-12-23T08:03:16.561Z,27.67
2022-12-23T08:05:43.187Z,27.48
2022-12-23T08:08:09.717Z,27.92
2022-12-23T08:10:36.196Z,29.15
2022-12-23T08:13:02.665Z,30.75
2022-12-23T08:15:29.172Z,31.30
2022-12-23T08:17:56.327Z,32.58
2022-12-23T08:20:22.908Z,33.20
2022-12-23T08:22:49.519Z,34.08
2022-12-23T08:25:16.113Z,34.92
2022-12-23T08:27:42.639Z,34.72
2022-12-23T08:30:09.763Z,35.70
2022-12-23T08:32:36.262Z,35.33
2022-12-23T08:35:02.780Z,35.45
2022-12-23T08:37:29.501Z,36.35
2022-12-23T08:39:56.011Z,35.95
2022-12-23T08:42:22.607Z,36.65
2022-12-23T08:44:49.145Z,37.72
2022-12-23T08:47:15.715Z,35.50
2022-12-23T08:49:42.219Z,36.22
2022-12-23T08:52:08.764Z,34.63
2022-12-23T08:54:35.333Z,35.42
2022-12-23T08:57:01.933Z,34.45
2022-12-23T08:59:28.695Z,33.63
2022-12-23T09:01:55.367Z,34.35
2022-12-23T09:04:22.015Z,33.00
2022-12-23T09:06:48.504Z,32.45
2022-12-23T09:09:16.059Z,31.70
2022-12-23T09:11:43.065Z,31.15
2022-12-23T09:14:11.116Z,29.30
2022-12-23T09:16:38.428Z,28.73
2022-12-23T09:19:05.102Z,28.50
2022-12-23T09:21:31.642Z,28.58
2022-12-23T09:23:58.231Z,27.00
2022-12-23T09:26:27.622Z,24.83
2022-12-23T09:28:54.688Z,23.88
2022-12-23T09:31:22.755Z,23.52
2022-12-23T09:33:53.082Z,24.20
2022-12-23T09:36:20.772Z,22.85
2022-12-23T09:38:47.401Z,22.17
2022-12-23T09:41:46.220Z,23.00
2022-12-23T09:44:34.096Z,22.17
2022-12-23T09:47:07.888Z,20.92
2022-12-23T09:49:34.565Z,20.45
2022-12-23T09:52:05.004Z,19.77
2022-12-23T09:54:43.203Z,19.20
2022-12-23T09:57:23.737Z,18.70
2022-12-23T10:00:00.256Z,19.63
2022-12-23T10:02:40.115Z,18.17
2022-12-23T10:05:31.429Z,19.17
2022-12-23T10:08:03.390Z,18.50
2022-12-23T10:10:53.997Z,17.50
2022-12-23T10:13:38.045Z,18.23
2022-12-23T10:16:09.690Z,17.67
2022-12-23T10:19:01.069Z,17.40
2022-12-23T10:21:45.371Z,17.03
2022-12-23T10:24:23.057Z,16.50
2022-12-23T10:27:00.614Z,15.20
2022-12-23T10:29:31.509Z,15.40
2022-12-23T10:32:36.592Z,15.47
2022-12-23T10:35:30.417Z,15.13
2022-12-23T10:38:21.373Z,15.25
2022-12-23T10:41:09.457Z,15.63
2022-12-23T10:44:05.736Z,15.35
2022-12-23T10:47:04.644Z,15.93
2022-12-23T10:49:49.569Z,15.63
2022-12-23T10:52:20.295Z,15.75
2022-12-23T10:54:47.740Z,16.00
2022-12-23T10:57:17.278Z,15.18
2022-12-23T10:59:44.151Z,15.27
2022-12-23T11:02:13.879Z,15.02
2022-12-23T11:04:49.094Z,15.95
2022-12-23T11:10:17.977Z,14.80
2022-12-23T11:12:50.719Z,14.45
2022-12-23T11:15:28.354Z,14.82
2022-12-23T11:18:12.207Z,14.07
2022-12-23T11:20:41.547Z,14.85
2022-12-23T11:23:31.755Z,14.43
2022-12-23T11:26:07.517Z,13.93
2022-12-23T11:28:37.580Z,13.65
2022-12-23T11:31:11.613Z,13.45
2022-12-23T11:33:51.996Z,13.68
2022-12-23T11:36:23.983Z,12.93
2022-12-23T11:39:04.919Z,13.00
2022-12-23T11:41:37.857Z,12.52
2022-12-23T11:44:11.687Z,12.85
2022-12-23T11:46:38.386Z,12.30
2022-12-23T11:49:24.199Z,12.23
2022-12-23T11:52:01.816Z,13.32
2022-12-23T11:54:29.118Z,13.27
2022-12-23T11:56:56.151Z,13.98
2022-12-23T11:59:40.568Z,13.50
2022-12-23T12:02:20.577Z,13.10
2022-12-23T12:05:26.358Z,13.00
2022-12-23T12:07:56.732Z,12.40
2022-12-23T12:10:27.924Z,12.45
2022-12-23T12:13:02.336Z,13.10
2022-12-23T12:15:44.011Z,12.00
2022-12-23T12:18:15.504Z,12.00
2022-12-23T12:20:53.168Z,12.43
2022-12-23T12:23:35.169Z,12.57
2022-12-23T12:28:42.218Z,10.90
2022-12-23T12:31:23.331Z,11.50
2022-12-23T12:33:55.911Z,11.05
2022-12-23T12:36:37.654Z,11.40
2022-12-23T12:39:04.236Z,11.57
2022-12-23T12:41:37.128Z,11.40
2022-12-23T12:44:15.801Z,12.02
2022-12-23T12:47:28.518Z,12.10
2022-12-23T12:50:06.200Z,12.60
2022-12-23T12:52:39.147Z,13.10
2022-12-23T12:55:31.652Z,13.23
2022-12-23T12:57:58.321Z,13.75
2022-12-23T13:00:25.216Z,13.55
2022-12-23T13:03:09.956Z,13.48
2022-12-23T13:06:11.852Z,13.40
2022-12-23T13:08:51.439Z,13.80
2022-12-23T13:11:24.931Z,13.32
2022-12-23T13:13:54.796Z,13.45
2022-12-23T13:16:44.246Z,12.20
2022-12-23T13:19:51.094Z,11.75
2022-12-23T13:22:25.002Z,11.90
2022-12-23T13:25:15.358Z,11.68
2022-12-23T13:27:57.687Z,12.23
2022-12-23T13:30:28.269Z,11.60
2022-12-23T13:33:16.578Z,12.13
2022-12-23T13:36:17.286Z,12.43
2022-12-23T13:39:16.633Z,12.15
2022-12-23T13:41:51.183Z,12.98
2022-12-23T13:44:18.810Z,13.00
2022-12-23T13:47:11.866Z,14.82
2022-12-23T13:49:41.303Z,14.65
2022-12-23T13:52:26.663Z,13.18
2022-12-23T13:55:08.374Z,13.25
2022-12-23T13:57:56.732Z,12.98
2022-12-23T14:00:34.399Z,11.07
2022-12-23T14:03:00.954Z,11.73
2022-12-23T14:05:50.789Z,11.25
2022-12-23T14:08:20.291Z,10.60
2022-12-23T14:11:14.509Z,10.95
2022-12-23T14:13:46.249Z,9.98
2022-12-23T14:16:21.516Z,10.35
2022-12-23T14:18:55.394Z,10.57
2022-12-23T14:21:59.307Z,11.30
2022-12-23T14:25:10.065Z,10.68
2022-12-23T14:27:54.671Z,10.60
2022-12-23T14:30:35.714Z,10.18
2022-12-23T14:33:33.821Z,9.55
2022-12-23T14:36:22.529Z,9.20
2022-12-23T14:39:14.099Z,9.20
2022-12-23T14:41:52.818Z,8.70
2022-12-23T14:44:26.402Z,7.85
2022-12-23T14:46:54.618Z,7.78
2022-12-23T14:49:40.364Z,8.10
2022-12-23T14:52:46.220Z,8.15
2022-12-23T14:55:33.116Z,8.35
2022-12-23T14:58:07.792Z,8.40
2022-12-23T15:00:46.267Z,8.68
2022-12-23T15:03:13.017Z,8.70
2022-12-23T15:05:40.724Z,9.32
2022-12-23T15:08:28.897Z,11.73
2022-12-23T15:10:56.723Z,9.55
2022-12-23T15:13:25.487Z,11.70
2022-12-23T15:16:00.611Z,12.15
2022-12-23T15:18:28.468Z,15.00
2022-12-23T15:21:03.956Z,13.18
2022-12-23T15:23:30.445Z,13.38
2022-12-23T15:26:00.259Z,12.98
2022-12-23T15:28:44.843Z,11.98
2022-12-23T15:31:35.790Z,11.68
2022-12-23T15:34:13.327Z,11.85
2022-12-23T15:36:44.459Z,15.07
2022-12-23T15:39:19.731Z,14.98
2022-12-23T15:41:47.805Z,16.05
2022-12-23T15:44:20.557Z,16.85
2022-12-23T15:46:49.031Z,15.55
2022-12-23T15:49:16.525Z,15.00
2022-12-23T15:54:36.810Z,15.40
2022-12-23T15:57:04.499Z,16.05
2022-12-23T15:59:38.630Z,16.42
2022-12-23T16:05:13.357Z,15.90
2022-12-23T16:07:42.029Z,16.25
2022-12-23T16:10:14.109Z,16.52
2022-12-23T16:12:41.835Z,16.27
2022-12-23T16:15:28.715Z,15.88
2022-12-23T16:18:25.670Z,15.70
2022-12-23T16:20:56.375Z,15.90
2022-12-23T16:23:24.532Z,15.23
2022-12-23T16:25:52.787Z,13.70
2022-12-23T16:28:24.356Z,13.65
2022-12-23T16:30:57.377Z,11.10
2022-12-23T16:33:38.522Z,10.45
2022-12-23T16:36:26.413Z,9.63
2022-12-23T16:39:00.284Z,8.43
2022-12-23T16:41:26.796Z,7.57
2022-12-23T16:43:53.356Z,7.28
2022-12-23T16:46:22.065Z,7.72
2022-12-23T16:48:55.421Z,7.10
2022-12-23T16:51:23.328Z,7.28
2022-12-23T16:53:51.500Z,7.05
2022-12-23T16:56:20.848Z,7.03
2022-12-23T16:58:47.607Z,7.72
2022-12-23T17:01:16.649Z,7.15
2022-12-23T17:03:43.218Z,8.05
2022-12-23T17:06:14.267Z,8.23
2022-12-23T17:08:41.399Z,7.82
2022-12-23T17:11:14.137Z,8.52
2022-12-23T17:13:40.676Z,8.68
2022-12-23T17:16:16.544Z,8.07
2022-12-23T17:18:43.070Z,8.88
2022-12-23T17:21:21.404Z,7.80
2022-12-23T17:23:48.945Z,7.82
2022-12-23T17:26:15.452Z,8.30
2022-12-23T17:28:42.050Z,8.32
2022-12-23T17:31:13.937Z,8.70
2022-12-23T17:33:41.784Z,9.50
2022-12-23T17:36:11.000Z,11.32
2022-12-23T17:38:37.715Z,11.65
2022-12-23T17:41:04.607Z,12.00
2022-12-23T17:43:31.253Z,12.38
2022-12-23T17:45:57.958Z,12.98
2022-12-23T17:48:29.741Z,12.15
2022-12-23T17:50:58.209Z,12.38
2022-12-23T17:53:24.734Z,11.82
2022-12-23T17:55:51.325Z,11.45
2022-12-23T17:58:17.855Z,10.43
2022-12-23T18:00:44.464Z,10.85
2022-12-23T18:03:23.113Z,9.48
2022-12-23T18:05:54.259Z,10.05
2022-12-23T18:08:23.865Z,9.90
2022-12-23T18:10:50.454Z,9.15
2022-12-23T18:13:19.129Z,8.90
2022-12-23T18:15:46.003Z,9.23
2022-12-23T18:18:28.588Z,8.73
2022-12-23T18:20:59.803Z,9.52
2022-12-23T18:23:29.267Z,8.65
2022-12-23T18:25:56.799Z,9.50
2022-12-23T18:28:24.298Z,9.75
2022-12-23T18:30:52.764Z,9.65
2022-12-23T18:33:19.584Z,9.85
2022-12-23T18:35:48.367Z,9.27
2022-12-23T18:38:16.803Z,9.52
2022-12-23T18:40:43.963Z,9.70
2022-12-23T18:43:24.607Z,9.18
2022-12-23T18:45:53.573Z,8.57
2022-12-23T18:48:21.265Z,8.95
2022-12-23T18:50:47.967Z,8.82
2022-12-23T18:53:23.497Z,9.23
2022-12-23T18:55:51.852Z,8.45
2022-12-23T18:58:18.681Z,8.63
2022-12-23T19:00:46.231Z,8.18
2022-12-23T19:03:24.966Z,7.38
2022-12-23T19:05:53.317Z,7.90
2022-12-23T19:08:26.357Z,8.35
2022-12-23T19:10:54.760Z,7.90
2022-12-23T19:13:21.689Z,7.90
2022-12-23T19:15:48.256Z,8.15
2022-12-23T19:18:17.297Z,7.60
2022-12-23T19:20:45.318Z,6.85
2022-12-23T19:23:12.691Z,7.07
2022-12-23T19:25:47.783Z,7.75
2022-12-23T19:30:48.607Z,7.30
2022-12-23T19:33:15.315Z,6.60
2022-12-23T19:35:42.290Z,6.45
2022-12-23T19:38:09.563Z,7.80
2022-12-23T19:40:36.133Z,6.35
2022-12-23T19:43:02.930Z,7.25
2022-12-23T19:45:29.469Z,5.97
2022-12-23T19:47:56.070Z,5.95
2022-12-23T19:50:22.611Z,5.90
2022-12-23T19:52:50.660Z,10.90
2022-12-23T19:55:17.307Z,6.57
2022-12-23T19:57:43.877Z,6.75
2022-12-23T20:00:11.061Z,7.45
2022-12-23T20:02:40.286Z,7.93
2022-12-23T20:05:07.319Z,8.75
2022-12-23T20:07:35.648Z,9.30
2022-12-23T20:10:02.547Z,9.07
2022-12-23T20:12:29.132Z,9.85
2022-12-23T20:14:55.736Z,9.52
2022-12-23T20:17:22.276Z,9.50
2022-12-23T20:19:48.789Z,9.85
2022-12-23T20:22:15.361Z,9.80
2022-12-23T20:24:41.860Z,9.25
2022-12-23T20:27:11.728Z,10.15
2022-12-23T20:29:39.848Z,7.75
2022-12-23T20:32:06.476Z,7.70
2022-12-23T20:34:38.696Z,7.22
2022-12-23T20:37:06.198Z,8.05
2022-12-23T20:39:32.776Z,6.75
2022-12-23T20:41:59.364Z,7.88
2022-12-23T20:44:35.137Z,6.68
2022-12-23T20:47:02.835Z,7.00
2022-12-23T20:49:29.603Z,7.18
2022-12-23T20:51:56.172Z,6.50
2022-12-23T20:54:27.972Z,6.03
2022-12-23T20:56:58.544Z,5.32
2022-12-23T20:59:25.296Z,5.63
2022-12-23T21:01:51.841Z,5.47
2022-12-23T21:04:18.752Z,5.70
2022-12-23T21:06:45.324Z,4.80
2022-12-23T21:09:14.531Z,5.18
2022-12-23T21:11:43.479Z,5.38
2022-12-23T21:14:10.889Z,5.65
2022-12-23T21:16:38.772Z,4.20
2022-12-23T21:19:13.129Z,4.85
2022-12-23T21:21:39.690Z,4.72
2022-12-23T21:24:06.488Z,4.55
2022-12-23T21:26:34.107Z,5.45
2022-12-23T21:29:03.721Z,5.50
2022-12-23T21:31:32.407Z,3.95
2022-12-23T21:33:59.059Z,4.00
2022-12-23T21:36:32.197Z,4.15
2022-12-23T21:38:59.706Z,4.43
2022-12-23T21:41:31.763Z,4.25
2022-12-23T21:44:00.016Z,4.65
2022-12-23T21:46:27.980Z,3.88
2022-12-23T21:48:56.184Z,4.72
2022-12-23T21:51:39.090Z,4.45
2022-12-23T21:54:08.117Z,4.07
2022-12-23T21:56:35.091Z,4.03
2022-12-23T21:59:11.426Z,4.25
2022-12-23T22:01:38.366Z,4.25
2022-12-23T22:04:05.300Z,3.97
2022-12-23T22:06:36.596Z,4.65
2022-12-23T22:09:07.207Z,5.03
2022-12-23T22:11:35.869Z,5.32
2022-12-23T22:14:04.505Z,4.78
2022-12-23T22:16:31.565Z,5.03
2022-12-23T22:18:59.737Z,5.43
2022-12-23T22:21:28.652Z,5.60
2022-12-23T22:23:56.322Z,5.75
2022-12-23T22:26:28.843Z,5.28
2022-12-23T22:28:57.442Z,5.40
2022-12-23T22:31:29.686Z,5.95
2022-12-23T22:33:56.316Z,6.15
2022-12-23T22:36:23.012Z,5.53
2022-12-23T22:38:55.023Z,5.95
2022-12-23T22:41:22.397Z,6.10
2022-12-23T22:43:49.073Z,5.80
2022-12-23T22:46:15.771Z,6.00
2022-12-23T22:48:42.614Z,5.88
2022-12-23T22:51:14.393Z,6.43
2022-12-23T22:53:41.176Z,7.03
2022-12-23T22:56:08.227Z,5.60
2022-12-23T22:58:34.765Z,5.70
2022-12-23T23:01:01.657Z,6.32
2022-12-23T23:03:28.651Z,6.53
2022-12-23T23:06:12.996Z,5.30
2022-12-23T23:08:42.174Z,5.85
2022-12-23T23:11:08.765Z,5.60
2022-12-23T23:13:35.567Z,6.07
2022-12-23T23:16:02.576Z,6.20
2022-12-23T23:18:30.132Z,5.60
2022-12-23T23:20:56.748Z,5.97
2022-12-23T23:23:23.311Z,6.32
2022-12-23T23:25:49.848Z,5.35
2022-12-23T23:28:16.473Z,5.57
2022-12-23T23:30:43.084Z,5.75
2022-12-23T23:33:10.703Z,6.03
2022-12-23T23:35:37.291Z,5.93
2022-12-23T23:38:03.919Z,5.88
2022-12-23T23:40:30.462Z,6.70
2022-12-23T23:42:56.954Z,6.80
2022-12-23T23:45:23.475Z,6.63
2022-12-23T23:47:50.052Z,6.93
2022-12-23T23:50:16.683Z,7.28
2022-12-23T23:52:43.229Z,7.10
2022-12-23T23:55:10.169Z,6.93
2022-12-23T23:57:36.692Z,6.63
